sensor_id;sensor_type;location;lat;lon;timestamp;P1;durP1;ratioP1;P2;durP2;ratioP2
32850;SDS011;19202;48.992;8.390;2022-11-15T00:03:31;20.60;;;9.85;;
32850;SDS011;19202;48.992;8.390;2022-11-15T00:09:09;14.90;;;9.25;;
32850;SDS011;19202;48.992;8.390;2022-11-15T00:14:47;14.75;;;9.15;;
32850;SDS011;19202;48.992;8.390;2022-11-15T00:20:25;14.63;;;9.25;;
32850;SDS011;19202;48.992;8.390;2022-11-15T00:26:03;16.08;;;9.05;;
32850;SDS011;19202;48.992;8.390;2022-11-15T00:31:40;17.63;;;8.98;;
32850;SDS011;19202;48.992;8.390;2022-11-15T00:37:18;18.15;;;8.95;;
32850;SDS011;19202;48.992;8.390;2022-11-15T00:42:56;15.68;;;8.40;;
32850;SDS011;19202;48.992;8.390;2022-11-15T00:48:34;14.52;;;8.43;;
32850;SDS011;19202;48.992;8.390;2022-11-15T00:54:12;18.77;;;9.20;;
32850;SDS011;19202;48.992;8.390;2022-11-15T00:59:50;18.60;;;9.60;;
32850;SDS011;19202;48.992;8.390;2022-11-15T01:05:28;16.63;;;9.25;;
32850;SDS011;19202;48.992;8.390;2022-11-15T01:11:07;19.05;;;8.25;;
32850;SDS011;19202;48.992;8.390;2022-11-15T01:16:47;15.27;;;8.40;;
32850;SDS011;19202;48.992;8.390;2022-11-15T01:22:25;13.20;;;7.82;;
32850;SDS011;19202;48.992;8.390;2022-11-15T01:28:03;13.23;;;7.97;;
32850;SDS011;19202;48.992;8.390;2022-11-15T01:33:41;13.05;;;7.60;;
32850;SDS011;19202;48.992;8.390;2022-11-15T01:39:19;12.48;;;7.70;;
32850;SDS011;19202;48.992;8.390;2022-11-15T01:44:57;12.38;;;6.88;;
32850;SDS011;19202;48.992;8.390;2022-11-15T01:50:35;13.82;;;7.78;;
32850;SDS011;19202;48.992;8.390;2022-11-15T01:56:13;12.48;;;6.80;;
32850;SDS011;19202;48.992;8.390;2022-11-15T02:01:56;10.85;;;6.40;;
32850;SDS011;19202;48.992;8.390;2022-11-15T02:07:34;11.35;;;7.15;;
32850;SDS011;19202;48.992;8.390;2022-11-15T02:13:14;9.77;;;6.40;;
32850;SDS011;19202;48.992;8.390;2022-11-15T02:19:00;10.18;;;6.53;;
32850;SDS011;19202;48.992;8.390;2022-11-15T02:36:49;11.30;;;5.90;;
32850;SDS011;19202;48.992;8.390;2022-11-15T02:42:54;9.35;;;5.97;;
32850;SDS011;19202;48.992;8.390;2022-11-15T02:48:51;9.73;;;5.88;;
32850;SDS011;19202;48.992;8.390;2022-11-15T02:54:30;8.02;;;5.53;;
32850;SDS011;19202;48.992;8.390;2022-11-15T03:00:14;9.43;;;5.25;;
32850;SDS011;19202;48.992;8.390;2022-11-15T03:06:04;10.20;;;5.15;;
32850;SDS011;19202;48.992;8.390;2022-11-15T03:11:48;7.82;;;5.30;;
32850;SDS011;19202;48.992;8.390;2022-11-15T03:17:35;9.25;;;5.43;;
32850;SDS011;19202;48.992;8.390;2022-11-15T03:23:15;8.98;;;5.15;;
32850;SDS011;19202;48.992;8.390;2022-11-15T03:28:56;9.35;;;5.05;;
32850;SDS011;19202;48.992;8.390;2022-11-15T03:40:39;9.40;;;5.10;;
32850;SDS011;19202;48.992;8.390;2022-11-15T03:46:31;9.60;;;5.32;;
32850;SDS011;19202;48.992;8.390;2022-11-15T03:52:11;8.70;;;5.30;;
32850;SDS011;19202;48.992;8.390;2022-11-15T03:57:51;8.15;;;4.72;;
32850;SDS011;19202;48.992;8.390;2022-11-15T04:03:33;10.73;;;4.93;;
32850;SDS011;19202;48.992;8.390;2022-11-15T04:09:11;8.88;;;5.20;;
32850;SDS011;19202;48.992;8.390;2022-11-15T04:14:49;10.40;;;5.30;;
32850;SDS011;19202;48.992;8.390;2022-11-15T04:20:44;9.23;;;6.13;;
32850;SDS011;19202;48.992;8.390;2022-11-15T04:26:41;15.25;;;7.57;;
32850;SDS011;19202;48.992;8.390;2022-11-15T04:32:19;12.98;;;7.03;;
32850;SDS011;19202;48.992;8.390;2022-11-15T04:37:56;13.10;;;6.78;;
32850;SDS011;19202;48.992;8.390;2022-11-15T04:43:35;11.63;;;6.70;;
32850;SDS011;19202;48.992;8.390;2022-11-15T04:49:13;13.50;;;6.45;;
32850;SDS011;19202;48.992;8.390;2022-11-15T04:54:51;11.52;;;5.70;;
32850;SDS011;19202;48.992;8.390;2022-11-15T05:00:29;12.70;;;6.63;;
32850;SDS011;19202;48.992;8.390;2022-11-15T05:06:07;11.27;;;5.10;;
32850;SDS011;19202;48.992;8.390;2022-11-15T05:11:45;9.38;;;4.95;;
32850;SDS011;19202;48.992;8.390;2022-11-15T05:17:24;11.50;;;5.55;;
32850;SDS011;19202;48.992;8.390;2022-11-15T05:23:02;9.60;;;5.30;;
32850;SDS011;19202;48.992;8.390;2022-11-15T05:28:40;9.60;;;4.90;;
32850;SDS011;19202;48.992;8.390;2022-11-15T05:34:18;7.00;;;4.90;;
32850;SDS011;19202;48.992;8.390;2022-11-15T05:39:56;9.05;;;4.60;;
32850;SDS011;19202;48.992;8.390;2022-11-15T05:45:33;8.18;;;5.10;;
32850;SDS011;19202;48.992;8.390;2022-11-15T05:51:12;11.82;;;6.78;;
32850;SDS011;19202;48.992;8.390;2022-11-15T05:56:53;10.85;;;5.88;;
32850;SDS011;19202;48.992;8.390;2022-11-15T06:02:32;8.25;;;4.97;;
32850;SDS011;19202;48.992;8.390;2022-11-15T06:08:10;10.38;;;5.22;;
32850;SDS011;19202;48.992;8.390;2022-11-15T06:13:48;10.02;;;5.22;;
32850;SDS011;19202;48.992;8.390;2022-11-15T06:19:25;7.68;;;5.45;;
32850;SDS011;19202;48.992;8.390;2022-11-15T06:25:03;12.88;;;6.18;;
32850;SDS011;19202;48.992;8.390;2022-11-15T06:30:42;11.50;;;5.93;;
32850;SDS011;19202;48.992;8.390;2022-11-15T06:36:20;7.45;;;4.72;;
32850;SDS011;19202;48.992;8.390;2022-11-15T06:41:58;8.05;;;5.32;;
32850;SDS011;19202;48.992;8.390;2022-11-15T06:47:43;13.55;;;6.60;;
32850;SDS011;19202;48.992;8.390;2022-11-15T06:53:23;8.43;;;5.70;;
32850;SDS011;19202;48.992;8.390;2022-11-15T06:59:02;9.65;;;5.95;;
32850;SDS011;19202;48.992;8.390;2022-11-15T07:04:39;10.15;;;6.15;;
32850;SDS011;19202;48.992;8.390;2022-11-15T07:10:17;11.32;;;6.32;;
32850;SDS011;19202;48.992;8.390;2022-11-15T07:15:55;12.57;;;5.53;;
32850;SDS011;19202;48.992;8.390;2022-11-15T07:21:33;9.98;;;5.32;;
32850;SDS011;19202;48.992;8.390;2022-11-15T07:27:11;14.82;;;5.80;;
32850;SDS011;19202;48.992;8.390;2022-11-15T07:32:56;13.68;;;5.93;;
32850;SDS011;19202;48.992;8.390;2022-11-15T07:38:34;10.93;;;5.70;;
32850;SDS011;19202;48.992;8.390;2022-11-15T07:44:13;13.25;;;7.90;;
32850;SDS011;19202;48.992;8.390;2022-11-15T07:49:51;24.60;;;11.60;;
32850;SDS011;19202;48.992;8.390;2022-11-15T07:55:29;23.20;;;10.13;;
32850;SDS011;19202;48.992;8.390;2022-11-15T08:01:08;22.92;;;8.93;;
32850;SDS011;19202;48.992;8.390;2022-11-15T08:06:47;14.77;;;6.70;;
32850;SDS011;19202;48.992;8.390;2022-11-15T08:12:25;13.98;;;6.45;;
32850;SDS011;19202;48.992;8.390;2022-11-15T08:18:04;15.35;;;7.10;;
32850;SDS011;19202;48.992;8.390;2022-11-15T08:23:44;18.65;;;7.75;;
32850;SDS011;19202;48.992;8.390;2022-11-15T08:29:21;18.23;;;5.38;;
32850;SDS011;19202;48.992;8.390;2022-11-15T08:34:59;13.45;;;6.03;;
32850;SDS011;19202;48.992;8.390;2022-11-15T08:40:37;16.10;;;5.20;;
32850;SDS011;19202;48.992;8.390;2022-11-15T08:46:15;19.30;;;5.13;;
32850;SDS011;19202;48.992;8.390;2022-11-15T08:51:53;19.42;;;8.23;;
32850;SDS011;19202;48.992;8.390;2022-11-15T08:57:31;13.23;;;5.75;;
32850;SDS011;19202;48.992;8.390;2022-11-15T09:03:09;7.97;;;5.00;;
32850;SDS011;19202;48.992;8.390;2022-11-15T09:08:47;12.88;;;5.25;;
32850;SDS011;19202;48.992;8.390;2022-11-15T09:14:26;6.30;;;4.20;;
32850;SDS011;19202;48.992;8.390;2022-11-15T09:20:03;22.45;;;9.95;;
32850;SDS011;19202;48.992;8.390;2022-11-15T09:25:42;12.45;;;6.55;;
32850;SDS011;19202;48.992;8.390;2022-11-15T09:31:20;16.10;;;7.25;;
32850;SDS011;19202;48.992;8.390;2022-11-15T09:36:58;10.60;;;5.63;;
32850;SDS011;19202;48.992;8.390;2022-11-15T09:54:35;17.70;;;9.05;;
32850;SDS011;19202;48.992;8.390;2022-11-15T10:00:22;8.32;;;4.75;;
32850;SDS011;19202;48.992;8.390;2022-11-15T10:06:08;17.88;;;8.18;;
32850;SDS011;19202;48.992;8.390;2022-11-15T10:11:52;9.60;;;5.07;;
32850;SDS011;19202;48.992;8.390;2022-11-15T10:23:16;9.23;;;5.00;;
32850;SDS011;19202;48.992;8.390;2022-11-15T10:28:56;12.48;;;5.20;;
32850;SDS011;19202;48.992;8.390;2022-11-15T10:34:35;7.47;;;4.97;;
32850;SDS011;19202;48.992;8.390;2022-11-15T10:40:22;12.20;;;6.78;;
32850;SDS011;19202;48.992;8.390;2022-11-15T10:46:14;12.90;;;5.63;;
32850;SDS011;19202;48.992;8.390;2022-11-15T10:58:18;10.77;;;5.63;;
32850;SDS011;19202;48.992;8.390;2022-11-15T11:04:09;14.88;;;6.07;;
32850;SDS011;19202;48.992;8.390;2022-11-15T11:09:49;12.68;;;5.50;;
32850;SDS011;19202;48.992;8.390;2022-11-15T11:15:38;14.77;;;6.18;;
32850;SDS011;19202;48.992;8.390;2022-11-15T11:21:19;14.90;;;8.02;;
32850;SDS011;19202;48.992;8.390;2022-11-15T11:27:12;14.48;;;8.00;;
32850;SDS011;19202;48.992;8.390;2022-11-15T11:33:24;12.85;;;7.10;;
32850;SDS011;19202;48.992;8.390;2022-11-15T11:50:51;13.73;;;6.22;;
32850;SDS011;19202;48.992;8.390;2022-11-15T11:56:33;31.15;;;16.00;;
32850;SDS011;19202;48.992;8.390;2022-11-15T12:02:24;56.30;;;26.00;;
32850;SDS011;19202;48.992;8.390;2022-11-15T12:20:25;17.63;;;8.45;;
32850;SDS011;19202;48.992;8.390;2022-11-15T12:26:22;9.52;;;5.35;;
32850;SDS011;19202;48.992;8.390;2022-11-15T12:32:04;10.77;;;4.80;;
32850;SDS011;19202;48.992;8.390;2022-11-15T12:37:47;14.80;;;7.18;;
32850;SDS011;19202;48.992;8.390;2022-11-15T12:43:40;16.23;;;7.68;;
32850;SDS011;19202;48.992;8.390;2022-11-15T12:55:01;8.18;;;4.50;;
32850;SDS011;19202;48.992;8.390;2022-11-15T13:01:00;9.02;;;4.30;;
32850;SDS011;19202;48.992;8.390;2022-11-15T13:06:42;8.82;;;4.40;;
32850;SDS011;19202;48.992;8.390;2022-11-15T13:18:39;15.93;;;9.05;;
32850;SDS011;19202;48.992;8.390;2022-11-15T13:24:17;6.85;;;3.25;;
32850;SDS011;19202;48.992;8.390;2022-11-15T13:29:54;8.93;;;5.43;;
32850;SDS011;19202;48.992;8.390;2022-11-15T13:35:32;9.35;;;4.25;;
32850;SDS011;19202;48.992;8.390;2022-11-15T13:47:05;6.95;;;4.18;;
32850;SDS011;19202;48.992;8.390;2022-11-15T13:52:44;11.88;;;5.53;;
32850;SDS011;19202;48.992;8.390;2022-11-15T13:58:26;9.63;;;4.22;;
32850;SDS011;19202;48.992;8.390;2022-11-15T14:04:04;5.32;;;3.90;;
32850;SDS011;19202;48.992;8.390;2022-11-15T14:09:42;8.23;;;3.00;;
32850;SDS011;19202;48.992;8.390;2022-11-15T14:21:07;8.65;;;3.58;;
32850;SDS011;19202;48.992;8.390;2022-11-15T14:26:46;5.60;;;3.33;;
32850;SDS011;19202;48.992;8.390;2022-11-15T14:32:25;6.55;;;3.45;;
32850;SDS011;19202;48.992;8.390;2022-11-15T14:38:07;7.43;;;3.80;;
32850;SDS011;19202;48.992;8.390;2022-11-15T14:43:45;6.65;;;4.03;;
32850;SDS011;19202;48.992;8.390;2022-11-15T14:49:23;10.50;;;6.22;;
32850;SDS011;19202;48.992;8.390;2022-11-15T14:55:02;9.32;;;5.60;;
32850;SDS011;19202;48.992;8.390;2022-11-15T15:00:48;8.40;;;4.45;;
32850;SDS011;19202;48.992;8.390;2022-11-15T15:06:26;6.38;;;4.03;;
32850;SDS011;19202;48.992;8.390;2022-11-15T15:12:18;15.55;;;8.77;;
32850;SDS011;19202;48.992;8.390;2022-11-15T15:18:00;13.30;;;7.18;;
32850;SDS011;19202;48.992;8.390;2022-11-15T15:23:38;7.40;;;4.70;;
32850;SDS011;19202;48.992;8.390;2022-11-15T15:29:16;5.57;;;3.72;;
32850;SDS011;19202;48.992;8.390;2022-11-15T15:34:54;11.65;;;5.00;;
32850;SDS011;19202;48.992;8.390;2022-11-15T15:40:32;16.15;;;10.05;;
32850;SDS011;19202;48.992;8.390;2022-11-15T15:46:11;13.35;;;6.80;;
32850;SDS011;19202;48.992;8.390;2022-11-15T15:51:51;16.55;;;8.10;;
32850;SDS011;19202;48.992;8.390;2022-11-15T15:57:29;30.13;;;14.65;;
32850;SDS011;19202;48.992;8.390;2022-11-15T16:03:07;13.90;;;7.07;;
32850;SDS011;19202;48.992;8.390;2022-11-15T16:08:45;12.15;;;5.85;;
32850;SDS011;19202;48.992;8.390;2022-11-15T16:14:23;9.95;;;5.03;;
32850;SDS011;19202;48.992;8.390;2022-11-15T16:20:02;10.95;;;6.22;;
32850;SDS011;19202;48.992;8.390;2022-11-15T16:31:25;11.05;;;6.10;;
32850;SDS011;19202;48.992;8.390;2022-11-15T16:37:03;9.95;;;5.75;;
32850;SDS011;19202;48.992;8.390;2022-11-15T16:42:41;8.93;;;4.70;;
32850;SDS011;19202;48.992;8.390;2022-11-15T16:48:21;9.65;;;4.93;;
32850;SDS011;19202;48.992;8.390;2022-11-15T16:54:02;13.02;;;7.18;;
32850;SDS011;19202;48.992;8.390;2022-11-15T16:59:39;19.48;;;8.63;;
32850;SDS011;19202;48.992;8.390;2022-11-15T17:05:20;34.10;;;15.32;;
32850;SDS011;19202;48.992;8.390;2022-11-15T17:10:59;63.85;;;29.02;;
32850;SDS011;19202;48.992;8.390;2022-11-15T17:16:43;57.63;;;28.20;;
32850;SDS011;19202;48.992;8.390;2022-11-15T17:22:20;46.17;;;24.40;;
32850;SDS011;19202;48.992;8.390;2022-11-15T17:27:58;53.17;;;28.17;;
32850;SDS011;19202;48.992;8.390;2022-11-15T17:33:37;65.25;;;26.77;;
32850;SDS011;19202;48.992;8.390;2022-11-15T17:39:18;42.67;;;22.13;;
32850;SDS011;19202;48.992;8.390;2022-11-15T17:44:57;37.17;;;17.50;;
32850;SDS011;19202;48.992;8.390;2022-11-15T17:50:35;27.77;;;15.07;;
32850;SDS011;19202;48.992;8.390;2022-11-15T17:56:13;26.52;;;13.75;;
32850;SDS011;19202;48.992;8.390;2022-11-15T18:01:53;12.15;;;6.65;;
32850;SDS011;19202;48.992;8.390;2022-11-15T18:07:32;13.32;;;7.30;;
32850;SDS011;19202;48.992;8.390;2022-11-15T18:13:09;22.83;;;8.82;;
32850;SDS011;19202;48.992;8.390;2022-11-15T18:18:48;30.25;;;15.73;;
32850;SDS011;19202;48.992;8.390;2022-11-15T18:24:27;23.02;;;12.13;;
32850;SDS011;19202;48.992;8.390;2022-11-15T18:30:06;22.52;;;10.70;;
32850;SDS011;19202;48.992;8.390;2022-11-15T18:35:45;17.17;;;10.77;;
32850;SDS011;19202;48.992;8.390;2022-11-15T18:41:23;15.00;;;8.02;;
32850;SDS011;19202;48.992;8.390;2022-11-15T18:47:05;14.23;;;7.82;;
32850;SDS011;19202;48.992;8.390;2022-11-15T18:52:43;10.13;;;5.80;;
32850;SDS011;19202;48.992;8.390;2022-11-15T18:58:21;8.90;;;5.47;;
32850;SDS011;19202;48.992;8.390;2022-11-15T19:04:01;12.63;;;5.45;;
32850;SDS011;19202;48.992;8.390;2022-11-15T19:09:42;12.07;;;7.05;;
32850;SDS011;19202;48.992;8.390;2022-11-15T19:15:20;10.30;;;5.78;;
32850;SDS011;19202;48.992;8.390;2022-11-15T19:21:02;9.23;;;5.60;;
32850;SDS011;19202;48.992;8.390;2022-11-15T19:26:42;13.38;;;6.25;;
32850;SDS011;19202;48.992;8.390;2022-11-15T19:32:21;12.18;;;5.93;;
32850;SDS011;19202;48.992;8.390;2022-11-15T19:37:59;9.82;;;5.93;;
32850;SDS011;19202;48.992;8.390;2022-11-15T19:43:38;10.07;;;5.60;;
32850;SDS011;19202;48.992;8.390;2022-11-15T19:49:16;11.02;;;5.43;;
32850;SDS011;19202;48.992;8.390;2022-11-15T19:54:54;12.40;;;5.88;;
32850;SDS011;19202;48.992;8.390;2022-11-15T20:00:31;16.13;;;6.95;;
32850;SDS011;19202;48.992;8.390;2022-11-15T20:06:11;11.18;;;6.47;;
32850;SDS011;19202;48.992;8.390;2022-11-15T20:11:52;12.07;;;5.90;;
32850;SDS011;19202;48.992;8.390;2022-11-15T20:17:30;14.93;;;6.80;;
32850;SDS011;19202;48.992;8.390;2022-11-15T20:23:08;12.32;;;7.53;;
32850;SDS011;19202;48.992;8.390;2022-11-15T20:28:46;10.93;;;7.03;;
32850;SDS011;19202;48.992;8.390;2022-11-15T20:34:25;18.92;;;7.32;;
32850;SDS011;19202;48.992;8.390;2022-11-15T20:40:04;14.23;;;6.93;;
32850;SDS011;19202;48.992;8.390;2022-11-15T20:45:42;12.57;;;7.25;;
32850;SDS011;19202;48.992;8.390;2022-11-15T20:51:25;12.50;;;6.95;;
32850;SDS011;19202;48.992;8.390;2022-11-15T20:57:03;15.75;;;7.63;;
32850;SDS011;19202;48.992;8.390;2022-11-15T21:02:41;10.52;;;6.88;;
32850;SDS011;19202;48.992;8.390;2022-11-15T21:08:18;10.68;;;6.25;;
32850;SDS011;19202;48.992;8.390;2022-11-15T21:13:56;13.55;;;7.40;;
32850;SDS011;19202;48.992;8.390;2022-11-15T21:19:35;15.15;;;7.80;;
32850;SDS011;19202;48.992;8.390;2022-11-15T21:25:13;15.80;;;7.47;;
32850;SDS011;19202;48.992;8.390;2022-11-15T21:30:54;14.35;;;7.55;;
32850;SDS011;19202;48.992;8.390;2022-11-15T21:36:34;16.00;;;7.82;;
32850;SDS011;19202;48.992;8.390;2022-11-15T21:42:11;14.82;;;8.27;;
32850;SDS011;19202;48.992;8.390;2022-11-15T21:47:50;13.40;;;7.75;;
32850;SDS011;19202;48.992;8.390;2022-11-15T21:53:28;10.25;;;6.78;;
32850;SDS011;19202;48.992;8.390;2022-11-15T21:59:07;9.82;;;6.30;;
32850;SDS011;19202;48.992;8.390;2022-11-15T22:04:45;13.30;;;6.40;;
32850;SDS011;19202;48.992;8.390;2022-11-15T22:10:23;12.60;;;6.90;;
32850;SDS011;19202;48.992;8.390;2022-11-15T22:16:01;9.27;;;6.55;;
32850;SDS011;19202;48.992;8.390;2022-11-15T22:21:39;11.25;;;6.35;;
32850;SDS011;19202;48.992;8.390;2022-11-15T22:27:17;9.27;;;5.80;;
32850;SDS011;19202;48.992;8.390;2022-11-15T22:32:55;7.15;;;5.00;;
32850;SDS011;19202;48.992;8.390;2022-11-15T22:38:33;9.50;;;5.50;;
32850;SDS011;19202;48.992;8.390;2022-11-15T22:44:11;10.38;;;5.78;;
32850;SDS011;19202;48.992;8.390;2022-11-15T22:49:49;11.52;;;4.90;;
32850;SDS011;19202;48.992;8.390;2022-11-15T22:55:28;10.65;;;5.95;;
32850;SDS011;19202;48.992;8.390;2022-11-15T23:01:06;11.70;;;5.93;;
32850;SDS011;19202;48.992;8.390;2022-11-15T23:06:44;12.75;;;5.60;;
32850;SDS011;19202;48.992;8.390;2022-11-15T23:12:21;9.02;;;5.13;;
32850;SDS011;19202;48.992;8.390;2022-11-15T23:18:18;8.27;;;4.80;;
32850;SDS011;19202;48.992;8.390;2022-11-15T23:23:56;11.45;;;4.50;;
32850;SDS011;19202;48.992;8.390;2022-11-15T23:29:35;8.55;;;5.32;;
32850;SDS011;19202;48.992;8.390;2022-11-15T23:35:33;10.02;;;5.00;;
32850;SDS011;19202;48.992;8.390;2022-11-15T23:41:12;8.57;;;5.32;;
32850;SDS011;19202;48.992;8.390;2022-11-15T23:46:50;11.25;;;5.47;;
32850;SDS011;19202;48.992;8.390;2022-11-15T23:52:29;9.82;;;5.75;;
32850;SDS011;19202;48.992;8.390;2022-11-15T23:58:06;9.18;;;5.85;;
